Time;durP1;ratioP1;P1;durP2;ratioP2;P2;SDS_P1;SDS_P2;PMS_P1;PMS_P2;Temp;Humidity;BMP_temperature;BMP_pressure;BME280_temperature;BME280_humidity;BME280_pressure;Samples;Min_cycle;Max_cycle;Signal;HPM_P1;HPM_P2
2023/07/21 06:13:45;;;;;;;;;2.00;2.00;;;;;22.37;47.38;101012.59;5076760;27;45762;-84
2023/07/21 06:16:10;;;;;;;;;2.00;2.00;;;;;22.52;47.33;100999.34;5066675;28;45398;-84
2023/07/21 06:18:36;;;;;;;;;2.00;2.00;;;;;22.73;46.99;101001.78;5066639;27;45439;-80
2023/07/21 06:21:04;;;;;;;;;1.33;1.33;;;;;22.93;47.03;101001.56;5064947;27;50152;-80
2023/07/21 06:23:29;;;;;;;;;2.33;2.00;;;;;23.13;46.78;101012.22;5064094;28;45546;-78
2023/07/21 06:25:55;;;;;;;;;2.00;2.00;;;;;23.28;47.33;101016.03;5063336;27;45535;-80
2023/07/21 06:28:21;;;;;;;;;3.00;3.00;;;;;23.46;46.90;101022.41;5065190;28;45430;-82
2023/07/21 06:30:47;;;;;;;;;2.00;2.00;;;;;23.61;46.23;101028.94;5069998;27;45638;-82
2023/07/21 06:33:13;;;;;;;;;4.00;3.33;;;;;23.73;45.93;101034.03;5066113;28;46439;-81
2023/07/21 06:35:39;;;;;;;;;2.00;2.00;;;;;23.87;45.70;101046.16;5065590;28;45701;-83
2023/07/21 06:38:05;;;;;;;;;2.00;2.00;;;;;23.98;45.73;101039.59;5059696;28;45687;-80
2023/07/21 06:40:30;;;;;;;;;1.00;1.00;;;;;24.05;45.82;101040.59;5073232;27;45437;-80
2023/07/21 06:42:56;;;;;;;;;4.00;3.00;;;;;24.16;45.54;101051.16;5066175;27;45601;-79
2023/07/21 06:45:21;;;;;;;;;3.00;2.67;;;;;24.25;45.26;101059.34;5064886;28;45795;-78
2023/07/21 06:47:46;;;;;;;;;2.00;2.00;;;;;24.30;44.89;101056.97;5064924;28;47912;-78
2023/07/21 06:50:12;;;;;;;;;2.00;2.00;;;;;24.34;44.55;101053.78;5064623;28;45881;-78
2023/07/21 06:52:37;;;;;;;;;3.33;3.00;;;;;24.40;44.37;101054.13;5064803;28;45470;-78
2023/07/21 06:55:03;;;;;;;;;3.00;3.00;;;;;24.45;44.09;101047.16;5060809;28;45611;-77
2023/07/21 06:57:28;;;;;;;;;3.00;3.00;;;;;24.48;44.08;101049.53;5063931;28;45665;-78
2023/07/21 06:59:54;;;;;;;;;2.33;2.33;;;;;24.51;43.75;101047.50;5066706;28;45555;-82
2023/07/21 07:02:20;;;;;;;;;3.00;3.00;;;;;24.54;43.68;101039.03;5064783;28;45768;-80
2023/07/21 07:04:47;;;;;;;;;3.33;2.00;;;;;24.59;43.86;101040.22;5066544;28;45442;-82
2023/07/21 07:07:13;;;;;;;;;3.33;3.00;;;;;24.61;43.93;101046.31;5065755;28;45785;-80
2023/07/21 07:09:38;;;;;;;;;2.33;2.33;;;;;24.66;43.62;101047.69;5065598;28;45511;-82
2023/07/21 07:12:06;;;;;;;;;3.33;3.00;;;;;24.68;43.91;101045.69;5069120;27;47434;-80
2023/07/21 07:14:31;;;;;;;;;4.00;2.00;;;;;24.71;43.49;101045.31;5080159;27;45698;-81
2023/07/21 07:16:56;;;;;;;;;3.67;3.67;;;;;24.73;43.29;101046.00;5085849;27;58272;-80
2023/07/21 07:19:22;;;;;;;;;3.00;3.00;;;;;24.75;43.31;101054.81;5088558;27;57466;-79
2023/07/21 07:21:47;;;;;;;;;4.33;3.00;;;;;24.76;43.21;101042.09;5094699;27;59062;-76
2023/07/21 07:24:12;;;;;;;;;2.33;2.33;;;;;24.78;43.21;101040.06;5076739;27;45515;-75
2023/07/21 07:26:38;;;;;;;;;3.33;3.33;;;;;24.80;43.09;101035.31;5071486;28;45413;-76
2023/07/21 07:29:06;;;;;;;;;3.00;3.00;;;;;24.83;43.00;101041.28;5079971;27;45754;-77
2023/07/21 07:31:31;;;;;;;;;3.00;3.00;;;;;24.83;42.78;101041.28;5070239;28;46447;-79
2023/07/21 07:33:57;;;;;;;;;4.00;4.00;;;;;24.83;42.78;101049.44;5067616;28;45473;-79
2023/07/21 07:36:23;;;;;;;;;3.00;3.00;;;;;24.84;42.54;101045.69;5067376;28;45513;-81
2023/07/21 07:38:48;;;;;;;;;3.67;3.00;;;;;24.85;42.56;101047.38;5064892;28;45629;-81
2023/07/21 07:41:13;;;;;;;;;2.00;2.00;;;;;24.86;42.47;101056.38;5062448;27;50128;-82
2023/07/21 07:43:39;;;;;;;;;2.67;2.67;;;;;24.86;42.14;101059.94;5072561;28;45597;-88
2023/07/21 07:46:07;;;;;;;;;2.00;2.00;;;;;24.85;42.17;101069.09;5070260;28;52171;-91
2023/07/21 07:48:33;;;;;;;;;2.00;2.00;;;;;24.85;42.11;101070.97;5070522;28;46235;-84
2023/07/21 07:51:05;;;;;;;;;3.00;2.00;;;;;24.84;41.84;101069.25;5065698;28;45569;-82
2023/07/21 07:53:31;;;;;;;;;4.00;4.00;;;;;24.81;41.34;101070.41;5067222;28;45510;-81
2023/07/21 07:55:57;;;;;;;;;2.33;2.33;;;;;24.81;41.34;101069.59;5072145;27;45664;-82
2023/07/21 07:58:22;;;;;;;;;5.00;3.33;;;;;24.78;41.09;101059.06;5059693;28;45580;-88
2023/07/21 08:00:48;;;;;;;;;2.00;2.00;;;;;24.77;40.89;101070.94;5067424;28;48283;-83
2023/07/21 08:03:14;;;;;;;;;1.00;1.00;;;;;24.72;40.96;101069.59;5067823;28;45438;-82
2023/07/21 08:05:40;;;;;;;;;3.00;1.33;;;;;24.72;41.54;101079.56;5063565;28;46204;-82
2023/07/21 08:08:07;;;;;;;;;4.00;4.00;;;;;24.74;41.93;101078.38;5072718;28;45521;-82
2023/07/21 08:10:33;;;;;;;;;6.00;3.00;;;;;24.76;41.77;101077.41;5062008;28;46442;-78
2023/07/21 08:13:00;;;;;;;;;3.00;3.00;;;;;24.76;41.75;101078.22;5071788;28;45492;-79
2023/07/21 08:15:27;;;;;;;;;3.00;3.00;;;;;24.77;41.48;101079.09;5064266;28;45667;-78
2023/07/21 08:17:53;;;;;;;;;2.67;2.67;;;;;24.76;41.83;101078.22;5066099;28;45502;-76
2023/07/21 08:20:20;;;;;;;;;2.33;2.33;;;;;24.78;41.69;101084.34;5072052;28;46389;-78
2023/07/21 08:22:46;;;;;;;;;3.00;3.00;;;;;24.78;41.75;101081.63;5067765;28;45472;-80
2023/07/21 08:25:11;;;;;;;;;2.67;2.67;;;;;24.79;42.07;101087.91;5072168;28;45585;-78
2023/07/21 08:27:37;;;;;;;;;2.00;2.00;;;;;24.79;41.86;101083.31;5065937;28;45645;-77
2023/07/21 08:30:04;;;;;;;;;2.00;2.00;;;;;24.80;42.19;101089.63;5070240;28;46194;-77
2023/07/21 08:32:29;;;;;;;;;1.00;1.00;;;;;24.81;42.35;101092.13;5068329;28;45495;-76
2023/07/21 08:34:55;;;;;;;;;1.33;1.33;;;;;24.83;42.24;101094.72;5070072;28;45688;-76
2023/07/21 08:37:21;;;;;;;;;2.33;2.00;;;;;24.83;42.20;101084.72;5069453;28;45447;-79
2023/07/21 08:39:46;;;;;;;;;1.33;1.33;;;;;24.87;41.88;101085.22;5063934;28;46082;-78
2023/07/21 08:42:13;;;;;;;;;2.33;2.33;;;;;24.88;41.74;101092.34;5044192;28;45487;-78
2023/07/21 08:44:39;;;;;;;;;1.67;1.33;;;;;24.90;41.45;101092.19;5067432;28;45501;-78
2023/07/21 08:47:05;;;;;;;;;2.00;2.00;;;;;24.88;41.61;101083.38;5052242;28;45594;-81
2023/07/21 08:49:32;;;;;;;;;2.00;2.00;;;;;24.90;41.18;101079.47;5073614;28;46445;-82
2023/07/21 08:51:57;;;;;;;;;3.33;3.33;;;;;24.94;41.20;101079.97;5051317;28;45761;-79
2023/07/21 08:54:22;;;;;;;;;3.00;3.00;;;;;24.93;40.93;101087.25;5072988;28;45387;-80
2023/07/21 08:56:48;;;;;;;;;2.33;2.33;;;;;24.94;41.18;101082.69;5071047;28;45496;-79
2023/07/21 08:59:13;;;;;;;;;2.00;2.00;;;;;24.96;40.83;101083.34;5061095;28;47193;-78
2023/07/21 09:01:38;;;;;;;;;2.33;2.33;;;;;24.97;41.29;101087.78;5059832;28;45616;-77
2023/07/21 09:04:19;;;;;;;;;3.00;1.33;;;;;25.01;41.08;101080.97;5070129;28;45920;-76
2023/07/21 09:06:51;;;;;;;;;4.33;3.67;;;;;25.02;41.04;101084.53;5061210;28;45422;-80
2023/07/21 09:09:25;;;;;;;;;2.33;2.33;;;;;25.03;41.22;101089.81;5069714;28;45507;-81
2023/07/21 09:12:03;;;;;;;;;3.00;3.00;;;;;25.03;40.80;101089.81;5067885;28;45575;-80
2023/07/21 09:14:39;;;;;;;;;2.00;2.00;;;;;25.07;41.15;101077.59;5071770;28;45514;-81
2023/07/21 09:17:05;;;;;;;;;4.33;4.33;;;;;25.09;40.77;101091.00;5045759;28;45664;-76
2023/07/21 09:19:38;;;;;;;;;4.00;2.00;;;;;25.10;41.11;101081.84;5063155;28;45588;-83
2023/07/21 09:22:04;;;;;;;;;3.00;2.33;;;;;25.15;41.59;101078.59;5068336;28;45616;-80
2023/07/21 09:24:30;;;;;;;;;2.00;2.00;;;;;25.17;42.16;101079.28;5054794;28;45909;-80
2023/07/21 09:27:16;;;;;;;;;2.67;2.67;;;;;25.19;41.67;101080.81;5071072;28;45789;-80
2023/07/21 09:29:42;;;;;;;;;3.67;3.67;;;;;25.22;41.98;101076.91;5070291;27;46386;-82
2023/07/21 09:32:19;;;;;;;;;2.67;2.67;;;;;25.24;41.96;101081.13;5066637;28;45532;-81
2023/07/21 09:35:01;;;;;;;;;3.00;3.00;;;;;25.27;41.75;101079.94;5051284;28;45474;-80
2023/07/21 09:37:28;;;;;;;;;3.00;3.00;;;;;25.29;41.71;101085.22;5053947;28;45428;-78
2023/07/21 09:39:57;;;;;;;;;4.67;3.00;;;;;25.32;41.80;101079.41;5068241;27;45537;-78
2023/07/21 09:42:23;;;;;;;;;2.00;2.00;;;;;25.34;41.86;101078.22;5069432;28;45459;-80
2023/07/21 09:44:50;;;;;;;;;3.33;1.67;;;;;25.36;41.96;101080.75;5051980;28;45736;-78
2023/07/21 09:47:17;;;;;;;;;5.00;4.00;;;;;25.37;41.73;101075.16;5067109;28;45544;-80
2023/07/21 09:49:42;;;;;;;;;2.33;2.33;;;;;25.39;41.42;101075.00;5066125;28;46402;-80
2023/07/21 09:52:13;;;;;;;;;2.00;2.00;;;;;25.41;42.12;101067.50;5059499;28;45675;-75
2023/07/21 09:54:45;;;;;;;;;2.00;2.00;;;;;25.44;41.24;101072.59;5068886;28;45591;-76
2023/07/21 09:57:15;;;;;;;;;1.67;1.67;;;;;25.47;41.65;101076.84;5061282;28;45521;-75
2023/07/21 09:59:44;;;;;;;;;2.00;2.00;;;;;25.47;41.56;101074.13;5067689;28;45511;-76
2023/07/21 10:02:11;;;;;;;;;3.00;3.00;;;;;25.51;41.53;101083.63;5058261;28;45513;-75
2023/07/21 10:04:37;;;;;;;;;3.00;3.00;;;;;25.51;41.45;101073.59;5065310;28;45380;-77
2023/07/21 10:07:05;;;;;;;;;3.00;3.00;;;;;25.52;41.47;101079.88;5070403;28;45564;-78
2023/07/21 10:09:32;;;;;;;;;2.67;2.67;;;;;25.54;41.32;101075.13;5069353;28;45759;-75
2023/07/21 10:12:17;;;;;;;;;3.00;3.00;;;;;25.57;41.31;101082.09;5063784;28;45495;-74
2023/07/21 10:14:44;;;;;;;;;2.00;2.00;;;;;25.60;41.64;101076.31;5067923;28;45428;-74
2023/07/21 10:17:11;;;;;;;;;2.67;2.67;;;;;25.61;41.23;101081.59;5057907;28;45397;-74
2023/07/21 10:19:44;;;;;;;;;3.33;3.00;;;;;25.64;41.55;101077.69;5058470;28;46323;-74
2023/07/21 10:22:23;;;;;;;;;3.00;3.00;;;;;25.65;41.17;101076.66;5068426;28;46043;-74
2023/07/21 10:24:51;;;;;;;;;4.33;3.00;;;;;25.67;40.61;101090.06;5060741;28;46164;-74
2023/07/21 10:27:21;;;;;;;;;3.00;3.00;;;;;25.69;40.57;101085.28;5062540;28;45699;-75
2023/07/21 10:29:51;;;;;;;;;2.67;2.67;;;;;25.71;40.63;101080.53;5055890;28;45483;-75
2023/07/21 10:32:18;;;;;;;;;5.33;4.00;;;;;25.71;40.52;101085.97;5059826;28;45349;-79
2023/07/21 10:34:43;;;;;;;;;4.67;4.67;;;;;25.71;40.16;101088.69;5054982;28;46896;-82
2023/07/21 10:37:09;;;;;;;;;3.33;3.33;;;;;25.71;39.80;101085.97;5060415;28;45632;-88
2023/07/21 10:39:45;;;;;;;;;4.00;2.67;;;;;25.73;39.99;101086.63;5063994;28;45879;-82
2023/07/21 10:42:11;;;;;;;;;3.00;3.00;;;;;25.74;39.87;101080.19;5066039;28;45400;-80
2023/07/21 10:44:55;;;;;;;;;3.00;3.00;;;;;25.73;40.00;101079.34;5068182;28;45608;-80
2023/07/21 10:47:21;;;;;;;;;4.33;4.33;;;;;25.72;39.96;101072.22;5061906;28;45691;-80
2023/07/21 10:49:47;;;;;;;;;3.33;3.33;;;;;25.74;40.10;101072.88;5068219;28;46377;-78
2023/07/21 10:52:13;;;;;;;;;6.33;5.00;;;;;25.75;39.76;101077.28;5067972;28;45548;-78
2023/07/21 10:54:39;;;;;;;;;3.00;3.00;;;;;25.76;39.62;101076.25;5068084;28;45401;-79
2023/07/21 10:57:04;;;;;;;;;3.00;3.00;;;;;25.77;40.28;101085.28;5058325;28;45699;-77
2023/07/21 10:59:34;;;;;;;;;2.67;2.67;;;;;25.78;39.98;101070.66;5062770;28;45808;-79
2023/07/21 11:02:02;;;;;;;;;3.00;3.00;;;;;25.81;39.81;101083.03;5060190;28;45445;-78
2023/07/21 11:04:27;;;;;;;;;2.67;2.67;;;;;25.79;39.33;101077.81;5074988;28;45424;-76
2023/07/21 11:06:56;;;;;;;;;4.00;4.00;;;;;25.81;39.83;101086.63;5061801;28;45705;-77
2023/07/21 11:09:22;;;;;;;;;5.00;5.00;;;;;25.79;39.65;101080.53;5073983;28;46567;-77
2023/07/21 11:11:50;;;;;;;;;3.00;3.00;;;;;25.83;39.26;101081.00;5069194;28;45438;-78
2023/07/21 11:14:25;;;;;;;;;4.00;4.00;;;;;25.82;39.60;101073.88;5073020;28;45423;-77
2023/07/21 11:16:52;;;;;;;;;4.67;4.00;;;;;25.84;38.88;101078.13;5055478;28;45708;-83
2023/07/21 11:19:18;;;;;;;;;6.33;5.00;;;;;25.84;38.74;101075.41;5056642;28;47277;-80
2023/07/21 11:21:43;;;;;;;;;2.00;2.00;;;;;25.83;38.94;101079.13;5068512;28;45458;-78
2023/07/21 11:24:09;;;;;;;;;4.67;4.67;;;;;25.84;38.83;101075.41;5071025;28;45903;-75
2023/07/21 11:26:36;;;;;;;;;3.00;3.00;;;;;25.87;39.27;101079.63;5074188;28;45418;-75
2023/07/21 11:29:08;;;;;;;;;4.00;4.00;;;;;25.87;39.16;101083.19;5073323;28;45683;-75
2023/07/21 11:31:36;;;;;;;;;3.67;3.67;;;;;25.89;39.00;101073.00;5074440;27;45459;-75
2023/07/21 11:34:01;;;;;;;;;7.00;4.00;;;;;25.91;38.60;101068.22;5072791;28;45507;-76
2023/07/21 11:36:30;;;;;;;;;2.67;2.67;;;;;25.92;39.00;101071.81;5067781;27;45541;-76
2023/07/21 11:38:59;;;;;;;;;4.00;4.00;;;;;25.94;39.24;101069.72;5074247;28;45389;-76
2023/07/21 11:41:40;;;;;;;;;3.67;3.00;;;;;25.94;39.25;101072.47;5069246;28;45756;-79
2023/07/21 11:44:11;;;;;;;;;3.67;3.67;;;;;25.95;39.25;101070.59;5062196;28;45522;-79
2023/07/21 11:46:37;;;;;;;;;3.00;3.00;;;;;25.97;38.53;101074.84;5055072;28;45634;-81
2023/07/21 11:49:12;;;;;;;;;4.00;4.00;;;;;25.98;38.49;101068.38;5070630;27;46890;-77
2023/07/21 11:51:45;;;;;;;;;4.00;4.00;;;;;25.98;38.68;101067.50;5072751;28;45390;-77
2023/07/21 11:54:24;;;;;;;;;4.33;4.33;;;;;25.97;37.83;101068.53;5056014;28;45450;-78
2023/07/21 11:56:52;;;;;;;;;4.33;4.33;;;;;25.97;38.27;101072.13;5067670;28;47082;-78
2023/07/21 11:59:18;;;;;;;;;5.00;4.00;;;;;25.98;38.08;101062.06;5065198;28;46342;-78
2023/07/21 12:01:47;;;;;;;;;4.33;4.33;;;;;25.97;37.83;101061.25;5073179;28;45467;-80
2023/07/21 12:04:13;;;;;;;;;4.67;4.33;;;;;25.99;37.74;101070.06;5073387;28;45711;-78
2023/07/21 12:06:39;;;;;;;;;4.67;4.33;;;;;26.01;37.62;101068.03;5054109;28;45532;-78
2023/07/21 12:09:05;;;;;;;;;4.00;4.00;;;;;26.01;37.53;101059.84;5065237;27;46194;-79
2023/07/21 12:11:31;;;;;;;;;5.00;3.00;;;;;26.02;37.87;101057.97;5073379;28;45654;-79
2023/07/21 12:13:57;;;;;;;;;5.00;4.00;;;;;26.02;37.74;101056.09;5072172;28;46128;-79
2023/07/21 12:16:23;;;;;;;;;2.33;2.33;;;;;26.03;37.50;101041.47;5060904;28;45353;-82
2023/07/21 12:18:48;;;;;;;;;4.67;4.33;;;;;26.04;37.89;101048.59;5048918;28;47342;-76
2023/07/21 12:21:14;;;;;;;;;3.33;3.33;;;;;26.03;37.82;101046.91;5068977;28;45708;-77
2023/07/21 12:23:39;;;;;;;;;3.00;3.00;;;;;26.04;37.38;101042.34;5069087;28;45517;-76
2023/07/21 12:26:05;;;;;;;;;4.00;4.00;;;;;26.05;37.87;101049.47;5067961;28;53474;-76
2023/07/21 12:28:30;;;;;;;;;4.67;4.67;;;;;26.08;37.32;101048.25;5051588;28;47081;-76
2023/07/21 12:30:56;;;;;;;;;4.00;4.00;;;;;26.07;37.77;101039.25;5072804;28;45663;-75
2023/07/21 12:33:21;;;;;;;;;2.67;2.67;;;;;26.07;37.87;101050.13;5071131;28;45364;-75
2023/07/21 12:35:47;;;;;;;;;5.00;5.00;;;;;26.05;37.49;101031.28;5068342;28;45404;-78
2023/07/21 12:38:12;;;;;;;;;3.00;3.00;;;;;26.08;37.37;101045.53;5072146;28;45994;-78
2023/07/21 12:40:39;;;;;;;;;4.00;4.00;;;;;26.07;37.11;101035.69;5067387;28;46164;-76
2023/07/21 12:43:05;;;;;;;;;3.67;3.67;;;;;26.07;37.32;101041.97;5072824;28;45470;-79
2023/07/21 12:45:30;;;;;;;;;2.00;2.00;;;;;26.08;37.64;101034.66;5064706;28;45459;-78
2023/07/21 12:47:57;;;;;;;;;3.00;3.00;;;;;26.06;37.36;101029.38;5069085;28;46078;-78
2023/07/21 12:50:22;;;;;;;;;3.67;3.67;;;;;26.07;37.49;101036.53;5068218;28;45613;-78
2023/07/21 12:52:48;;;;;;;;;4.33;4.33;;;;;26.09;36.79;101033.63;5072670;28;45638;-79
2023/07/21 12:55:13;;;;;;;;;3.33;3.33;;;;;26.09;37.31;101036.34;5072572;28;45487;-76
2023/07/21 12:57:38;;;;;;;;;2.33;2.33;;;;;26.08;37.32;101038.25;5062127;28;45408;-79
2023/07/21 13:00:04;;;;;;;;;3.00;3.00;;;;;26.11;37.47;101043.31;5065000;28;46147;-81
2023/07/21 13:02:32;;;;;;;;;4.33;4.33;;;;;26.11;37.59;101043.31;5059702;28;45511;-85
2023/07/21 13:04:57;;;;;;;;;3.00;3.00;;;;;26.13;38.06;101040.41;5073359;28;45643;-85
2023/07/21 13:07:23;;;;;;;;;3.33;3.00;;;;;26.14;37.59;101040.22;5067618;28;45699;-86
2023/07/21 13:09:49;;;;;;;;;3.00;3.00;;;;;26.19;37.91;101039.69;5072509;28;45398;-83
2023/07/21 13:12:14;;;;;;;;;4.00;4.00;;;;;26.21;38.47;101029.47;5070808;28;45649;-78
2023/07/21 13:14:40;;;;;;;;;3.00;3.00;;;;;26.25;38.24;101040.88;5062628;28;45853;-79
2023/07/21 13:17:05;;;;;;;;;4.00;4.00;;;;;26.28;38.19;101035.91;5054724;28;57042;-79
2023/07/21 13:19:31;;;;;;;;;3.00;3.00;;;;;26.30;38.26;101030.31;5071773;27;45464;-80
2023/07/21 13:21:56;;;;;;;;;5.00;4.00;;;;;26.34;38.98;101026.19;5067489;28;45650;-77
2023/07/21 13:24:21;;;;;;;;;3.00;3.00;;;;;26.37;39.20;101035.88;5071979;28;56229;-80
2023/07/21 13:26:47;;;;;;;;;2.67;2.67;;;;;26.37;38.55;101028.56;5069964;28;46130;-87
2023/07/21 13:29:12;;;;;;;;;5.67;3.67;;;;;26.40;38.86;101030.91;5071628;28;45532;-85
2023/07/21 13:31:38;;;;;;;;;3.33;3.00;;;;;26.42;38.74;101034.31;5068574;28;45390;-85
2023/07/21 13:34:03;;;;;;;;;3.00;3.00;;;;;26.45;38.88;101030.38;5066546;28;45502;-84
2023/07/21 13:36:29;;;;;;;;;2.00;2.00;;;;;26.44;39.01;101028.66;5072448;28;45474;-89
2023/07/21 13:38:54;;;;;;;;;3.67;3.67;;;;;26.49;38.89;101022.69;5062930;28;45491;-79
2023/07/21 13:41:19;;;;;;;;;3.00;3.00;;;;;26.51;38.90;101032.38;5059071;28;45410;-84
2023/07/21 13:43:45;;;;;;;;;3.33;3.33;;;;;26.54;39.18;101020.25;5057115;28;45788;-84
2023/07/21 13:46:10;;;;;;;;;3.33;3.33;;;;;26.54;39.62;101020.25;5071340;28;46805;-82
2023/07/21 13:48:36;;;;;;;;;4.00;2.33;;;;;26.56;39.68;101023.63;5072561;28;45542;-81
2023/07/21 13:51:02;;;;;;;;;4.00;4.00;;;;;26.56;39.59;101013.59;5070952;28;45496;-82
2023/07/21 13:53:27;;;;;;;;;3.00;3.00;;;;;26.58;39.92;101024.31;5049672;28;45677;-83
2023/07/21 13:55:52;;;;;;;;;3.33;3.33;;;;;26.57;39.88;101012.56;5070744;28;63220;-81
2023/07/21 13:58:18;;;;;;;;;4.00;2.33;;;;;26.63;40.20;101018.31;5059034;28;45802;-83
2023/07/21 14:00:43;;;;;;;;;2.33;2.33;;;;;26.63;39.97;101016.44;5071646;28;45587;-81
2023/07/21 14:03:08;;;;;;;;;3.00;3.00;;;;;26.64;39.80;101017.31;5069334;27;45395;-84
2023/07/21 14:05:34;;;;;;;;;4.33;4.33;;;;;26.64;39.69;101028.19;5067775;28;46177;-81
2023/07/21 14:07:59;;;;;;;;;5.00;3.33;;;;;26.61;38.18;101028.56;5069045;28;45811;-81
2023/07/21 14:10:24;;;;;;;;;4.67;4.00;;;;;26.61;38.06;101036.72;5053095;28;45439;-81
2023/07/21 14:12:50;;;;;;;;;2.00;2.00;;;;;26.57;37.93;101036.25;5033969;28;45737;-81
2023/07/21 14:15:16;;;;;;;;;2.67;1.33;;;;;26.53;37.54;101022.13;5063879;28;47304;-80
2023/07/21 14:17:42;;;;;;;;;5.00;3.67;;;;;26.52;38.20;101035.94;5054369;28;45819;-79
2023/07/21 14:20:09;;;;;;;;;4.67;3.67;;;;;26.47;37.52;101036.47;5059682;28;45453;-81
2023/07/21 14:22:34;;;;;;;;;2.67;2.67;;;;;26.48;38.19;101034.59;5047754;28;45555;-85
2023/07/21 14:24:59;;;;;;;;;4.33;4.33;;;;;26.48;38.47;101029.16;5067711;28;45468;-89
2023/07/21 14:27:25;;;;;;;;;2.67;2.67;;;;;26.47;37.68;101027.44;5045714;28;45806;-89
2023/07/21 14:29:50;;;;;;;;;3.00;3.00;;;;;26.47;38.59;101038.34;5057303;28;45716;-82
2023/07/21 14:32:15;;;;;;;;;3.00;3.00;;;;;26.45;38.13;101038.53;5048874;28;48585;-86
2023/07/21 14:34:41;;;;;;;;;2.33;2.33;;;;;26.43;38.49;101030.56;5047200;28;46183;-86
2023/07/21 14:37:06;;;;;;;;;3.00;3.00;;;;;26.44;38.76;101034.97;5063198;28;45364;-85
2023/07/21 14:39:32;;;;;;;;;3.33;3.33;;;;;26.43;38.07;101036.00;5046173;28;45631;-81
2023/07/21 14:41:57;;;;;;;;;5.00;5.00;;;;;26.43;38.38;101040.56;5067732;28;45478;-82
2023/07/21 14:44:22;;;;;;;;;2.67;2.67;;;;;26.43;38.15;101033.28;5067525;28;56794;-82
2023/07/21 14:46:48;;;;;;;;;3.33;3.33;;;;;26.45;38.41;101041.25;5046233;28;45819;-80
2023/07/21 14:49:13;;;;;;;;;3.50;3.50;;;;;26.44;38.57;101042.25;5051870;28;46568;-79
2023/07/21 14:51:38;;;;;;;;;3.00;3.00;;;;;26.42;38.99;101036.16;5063336;28;49921;-80
2023/07/21 14:54:05;;;;;;;;;4.00;3.67;;;;;26.44;38.91;101039.53;5065425;28;45489;-80
2023/07/21 14:56:31;;;;;;;;;3.00;3.00;;;;;26.43;38.78;101032.41;5063056;27;45640;-80
2023/07/21 14:58:57;;;;;;;;;2.67;2.67;;;;;26.42;38.45;101030.72;5059612;28;45747;-80
2023/07/21 15:01:22;;;;;;;;;3.00;3.00;;;;;26.43;38.40;101040.56;5068043;28;52280;-85
2023/07/21 15:03:47;;;;;;;;;3.00;3.00;;;;;26.42;38.52;101039.75;5060460;28;46178;-84
2023/07/21 15:06:13;;;;;;;;;4.00;2.00;;;;;26.42;39.09;101038.88;5075380;28;45643;-83
2023/07/21 15:08:38;;;;;;;;;4.00;2.33;;;;;26.44;38.66;101051.28;5062596;28;45643;-84
2023/07/21 15:11:03;;;;;;;;;3.67;3.33;;;;;26.44;39.00;101047.72;5072908;27;46659;-83
2023/07/21 15:13:29;;;;;;;;;4.33;4.33;;;;;26.42;38.79;101037.03;5061647;28;59453;-83
2023/07/21 15:15:54;;;;;;;;;3.00;3.00;;;;;26.44;39.04;101044.97;5073346;28;58273;-85
2023/07/21 15:18:19;;;;;;;;;3.00;3.00;;;;;26.44;39.12;101042.25;5065690;28;45475;-87
2023/07/21 15:20:45;;;;;;;;;3.67;3.67;;;;;26.44;39.29;101045.84;5067006;28;45589;-80
2023/07/21 15:23:10;;;;;;;;;2.67;2.67;;;;;26.43;38.72;101038.72;5063116;28;46127;-81
2023/07/21 15:25:36;;;;;;;;;3.00;2.00;;;;;26.44;38.72;101040.41;5053121;28;59258;-82
2023/07/21 15:28:02;;;;;;;;;4.67;3.67;;;;;26.46;38.66;101033.94;5066919;28;45534;-84
2023/07/21 15:30:28;;;;;;;;;2.50;2.50;;;;;26.47;38.73;101030.16;5066978;27;45470;-85
2023/07/21 15:32:53;;;;;;;;;5.00;3.33;;;;;26.47;38.64;101028.31;5067810;27;47201;-81
2023/07/21 15:35:19;;;;;;;;;4.00;4.00;;;;;26.47;39.21;101032.88;5064257;28;45342;-82
2023/07/21 15:37:44;;;;;;;;;5.00;3.67;;;;;26.47;38.91;101041.06;5065258;28;45438;-81
2023/07/21 15:40:11;;;;;;;;;2.33;2.33;;;;;26.46;38.88;101028.47;5059644;28;45432;-83
2023/07/21 15:42:41;;;;;;;;;5.33;5.33;;;;;26.44;39.33;101026.78;5065048;28;46796;-83
2023/07/21 15:45:08;;;;;;;;;3.33;3.00;;;;;26.43;38.91;101025.09;5060998;28;45824;-81
